Time;durP1;ratioP1;P1;durP2;ratioP2;P2;SDS_P1;SDS_P2;PMS_P1;PMS_P2;Temp;Humidity;BMP_temperature;BMP_pressure;BME280_temperature;BME280_humidity;BME280_pressure;Samples;Min_cycle;Max_cycle;Signal;HPM_P1;HPM_P2
2022/09/29 00:00:12;;;;;;;5.15;3.65;;;;;;;9.18;76.12;98022.16;336971;29;1704;-84
2022/09/29 00:00:25;;;;;;;4.82;3.65;;;;;;;9.18;75.92;98024.75;338167;29;1218;-84
2022/09/29 00:00:38;;;;;;;5.65;3.90;;;;;;;9.17;75.70;98017.03;338690;29;1526;-85
2022/09/29 00:00:51;;;;;;;5.70;3.75;;;;;;;9.18;75.88;98019.56;339466;29;1574;-84
2022/09/29 00:01:03;;;;;;;5.13;3.67;;;;;;;9.20;75.83;98024.69;339496;29;1051;-84
2022/09/29 00:01:15;;;;;;;5.63;3.65;;;;;;;9.20;75.91;98017.72;339641;29;1215;-85
2022/09/29 00:01:27;;;;;;;7.15;3.72;;;;;;;9.20;75.73;98022.91;338475;29;1470;-84
2022/09/29 00:01:39;;;;;;;6.30;3.60;;;;;;;9.22;75.68;98020.25;339412;29;1284;-85
2022/09/29 00:01:52;;;;;;;6.80;3.90;;;;;;;9.21;75.67;98028.94;337448;29;1088;-85
2022/09/29 00:02:04;;;;;;;7.97;4.15;;;;;;;9.20;75.91;98028.09;337440;29;1459;-85
2022/09/29 00:02:16;;;;;;;10.77;4.22;;;;;;;9.22;75.89;98019.41;337868;29;1081;-85
2022/09/29 00:02:28;;;;;;;11.25;4.15;;;;;;;9.22;75.81;98024.59;338185;29;1107;-84
2022/09/29 00:02:40;;;;;;;8.43;3.97;;;;;;;9.22;75.87;98024.59;337644;29;1626;-85
2022/09/29 00:02:53;;;;;;;6.07;3.83;;;;;;;9.22;75.63;98022.84;337192;29;1724;-84
2022/09/29 00:03:05;;;;;;;5.10;3.97;;;;;;;9.24;75.64;98022.75;338435;29;802;-84
2022/09/29 00:03:19;;;;;;;5.10;4.10;;;;;;;9.23;75.45;98018.47;338460;29;1194;-84
2022/09/29 00:03:31;;;;;;;5.00;3.90;;;;;;;9.25;75.57;98027.00;338110;29;1734;-84
2022/09/29 00:03:43;;;;;;;5.72;3.75;;;;;;;9.26;75.57;98018.34;338289;29;1792;-85
2022/09/29 00:03:55;;;;;;;6.55;3.75;;;;;;;9.26;75.71;98026.13;338864;29;1072;-84
2022/09/29 00:04:08;;;;;;;6.78;3.78;;;;;;;9.26;75.57;98023.53;338933;29;1765;-84
2022/09/29 00:04:20;;;;;;;5.60;3.70;;;;;;;9.26;75.73;98020.94;339734;29;1079;-85
2022/09/29 00:04:32;;;;;;;5.53;3.72;;;;;;;9.25;75.95;98020.06;337881;29;1566;-84
2022/09/29 00:04:44;;;;;;;5.28;3.78;;;;;;;9.25;75.44;98025.25;338923;29;1751;-85
2022/09/29 00:04:56;;;;;;;4.72;3.78;;;;;;;9.25;75.46;98021.81;339609;29;1674;-84
2022/09/29 00:05:08;;;;;;;4.97;3.72;;;;;;;9.25;75.55;98021.81;339710;29;1189;-85
2022/09/29 00:05:20;;;;;;;5.25;3.63;;;;;;;9.25;75.68;98024.41;337876;29;1472;-84
2022/09/29 00:05:34;;;;;;;6.72;3.75;;;;;;;9.24;75.53;98023.59;339532;29;1387;-84
2022/09/29 00:05:50;;;;;;;6.85;3.75;;;;;;;9.25;75.49;98025.25;339705;29;1906;-84
2022/09/29 00:06:03;;;;;;;5.50;3.70;;;;;;;9.24;75.44;98027.94;337981;29;1097;-84
2022/09/29 00:06:17;;;;;;;5.65;3.90;;;;;;;9.25;75.37;98032.19;337742;29;1484;-84
2022/09/29 00:06:29;;;;;;;5.78;3.88;;;;;;;9.25;75.29;98024.41;338859;29;1720;-84
2022/09/29 00:06:41;;;;;;;7.55;3.58;;;;;;;9.25;75.38;98030.44;341266;29;765;-84
2022/09/29 00:06:53;;;;;;;7.20;3.50;;;;;;;9.24;75.10;98026.19;339957;29;1085;-84
2022/09/29 00:07:05;;;;;;;6.90;3.50;;;;;;;9.22;75.13;98027.19;339915;29;1702;-85
2022/09/29 00:07:17;;;;;;;5.90;3.50;;;;;;;9.25;75.39;98025.25;340035;29;1062;-84
2022/09/29 00:07:31;;;;;;;5.63;3.40;;;;;;;9.25;75.15;98024.41;341143;29;1055;-84
2022/09/29 00:07:43;;;;;;;5.45;3.45;;;;;;;9.26;75.54;98020.94;339598;29;1679;-84
2022/09/29 00:07:55;;;;;;;5.88;3.67;;;;;;;9.24;75.28;98017.56;339527;29;1462;-84
2022/09/29 00:08:07;;;;;;;6.50;3.55;;;;;;;9.23;75.28;98024.50;339671;29;1783;-84
2022/09/29 00:08:22;;;;;;;6.60;3.67;;;;;;;9.26;75.35;98026.13;339769;29;1541;-84
2022/09/29 00:08:34;;;;;;;5.53;3.80;;;;;;;9.24;75.57;98027.94;339329;29;1807;-84
2022/09/29 00:08:46;;;;;;;5.65;3.70;;;;;;;9.22;75.50;98027.19;339112;29;1709;-84
2022/09/29 00:08:58;;;;;;;5.32;3.50;;;;;;;9.22;75.66;98024.59;340113;28;1482;-84
2022/09/29 00:09:10;;;;;;;5.47;3.35;;;;;;;9.22;75.60;98029.78;341081;29;1008;-85
2022/09/29 00:09:22;;;;;;;6.65;3.45;;;;;;;9.23;75.63;98023.66;341526;29;1153;-84
2022/09/29 00:09:34;;;;;;;8.07;3.75;;;;;;;9.22;75.58;98027.19;339711;29;1581;-84
2022/09/29 00:09:46;;;;;;;7.63;3.63;;;;;;;9.22;75.52;98024.59;341014;29;1491;-84
2022/09/29 00:09:58;;;;;;;6.35;3.40;;;;;;;9.22;75.58;98024.59;339357;29;1141;-84
2022/09/29 00:10:10;;;;;;;5.10;3.38;;;;;;;9.22;75.79;98024.59;338854;29;1024;-84
2022/09/29 00:10:23;;;;;;;6.07;3.50;;;;;;;9.24;75.71;98027.94;340204;28;1169;-84
2022/09/29 00:10:39;;;;;;;5.65;3.45;;;;;;;9.23;75.40;98021.06;340607;28;1466;-85
2022/09/29 00:10:51;;;;;;;4.93;3.25;;;;;;;9.23;75.34;98026.25;340660;29;1598;-84
2022/09/29 00:11:07;;;;;;;6.22;3.40;;;;;;;9.24;75.15;98027.94;340196;29;1162;-85
2022/09/29 00:11:19;;;;;;;6.10;3.60;;;;;;;9.24;75.74;98027.94;339263;29;1596;-84
2022/09/29 00:11:31;;;;;;;5.57;3.55;;;;;;;9.25;75.28;98027.84;340502;29;1597;-84
2022/09/29 00:11:43;;;;;;;6.68;3.45;;;;;;;9.26;75.27;98026.13;339470;29;1597;-84
2022/09/29 00:11:55;;;;;;;6.22;3.40;;;;;;;9.27;75.31;98027.78;340022;29;1062;-83
2022/09/29 00:12:07;;;;;;;6.30;3.47;;;;;;;9.26;74.89;98020.94;339378;29;1310;-84
2022/09/29 00:12:19;;;;;;;7.45;3.63;;;;;;;9.27;75.15;98027.78;339477;29;1225;-84
2022/09/29 00:12:31;;;;;;;7.03;3.47;;;;;;;9.28;75.21;98034.66;340512;29;1560;-84
2022/09/29 00:12:43;;;;;;;6.35;3.47;;;;;;;9.25;75.47;98029.59;339683;29;1570;-83
2022/09/29 00:12:55;;;;;;;5.68;3.67;;;;;;;9.24;75.44;98027.94;338405;29;831;-85
2022/09/29 00:13:07;;;;;;;5.88;3.80;;;;;;;9.24;75.18;98027.94;338818;29;1008;-84
2022/09/29 00:13:20;;;;;;;5.90;3.65;;;;;;;9.24;74.92;98017.56;339262;29;1224;-84
2022/09/29 00:13:32;;;;;;;5.72;3.60;;;;;;;9.26;75.05;98020.94;336872;29;2027;-84
2022/09/29 00:13:46;;;;;;;6.88;3.70;;;;;;;9.26;75.25;98026.13;337910;29;1399;-84
2022/09/29 00:13:58;;;;;;;7.88;3.85;;;;;;;9.28;74.82;98026.88;338179;29;1865;-84
2022/09/29 00:14:10;;;;;;;7.78;3.80;;;;;;;9.27;74.90;98026.00;338295;29;1247;-84
2022/09/29 00:14:23;;;;;;;7.22;3.70;;;;;;;9.29;74.61;98026.75;338268;29;1116;-84
2022/09/29 00:14:35;;;;;;;6.10;3.72;;;;;;;9.28;75.07;98025.09;338345;29;1723;-84
2022/09/29 00:14:47;;;;;;;5.05;3.65;;;;;;;9.26;74.81;98023.53;337854;29;1598;-85
2022/09/29 00:14:59;;;;;;;5.20;3.65;;;;;;;9.24;75.01;98025.34;337803;29;1093;-84
2022/09/29 00:15:12;;;;;;;5.35;3.60;;;;;;;9.24;74.88;98027.94;339143;29;1481;-84
2022/09/29 00:15:24;;;;;;;6.10;3.83;;;;;;;9.25;75.05;98024.41;339369;29;1839;-84
2022/09/29 00:15:36;;;;;;;6.45;4.03;;;;;;;9.24;75.37;98027.94;339411;29;1072;-84
2022/09/29 00:15:59;;;;;;;6.93;3.90;;;;;;;9.23;75.14;98026.25;338153;29;1475;-84
2022/09/29 00:16:12;;;;;;;6.63;3.47;;;;;;;9.25;74.97;98029.59;338377;29;857;-84
2022/09/29 00:16:24;;;;;;;5.53;3.33;;;;;;;9.25;75.30;98030.44;338303;29;1217;-85
2022/09/29 00:16:36;;;;;;;4.90;3.33;;;;;;;9.25;75.05;98025.25;338747;29;1558;-84
2022/09/29 00:16:49;;;;;;;5.32;3.50;;;;;;;9.25;74.72;98024.41;337589;29;1705;-84
2022/09/29 00:17:01;;;;;;;5.93;3.63;;;;;;;9.26;75.03;98028.69;337537;29;1602;-84
2022/09/29 00:17:13;;;;;;;6.18;3.70;;;;;;;9.27;75.18;98027.78;337812;29;1710;-84
2022/09/29 00:17:25;;;;;;;6.28;3.58;;;;;;;9.28;74.99;98019.91;337964;29;1218;-84
2022/09/29 00:17:37;;;;;;;6.35;3.30;;;;;;;9.29;75.19;98026.75;338857;29;747;-84
2022/09/29 00:17:49;;;;;;;7.63;3.90;;;;;;;9.30;74.99;98027.63;339374;29;1057;-85
2022/09/29 00:18:21;;;;;;;5.55;3.40;;;;;;;9.27;75.24;98023.41;339529;29;1392;-84
2022/09/29 00:18:34;;;;;;;5.00;3.35;;;;;;;9.29;75.32;98025.94;338949;29;1475;-84
2022/09/29 00:18:46;;;;;;;6.15;3.45;;;;;;;9.29;75.21;98034.53;338169;29;1745;-85
2022/09/29 00:18:58;;;;;;;5.88;3.50;;;;;;;9.28;75.21;98021.69;339763;29;1016;-84
2022/09/29 00:19:10;;;;;;;5.60;3.58;;;;;;;9.28;75.43;98024.28;339232;29;1667;-84
2022/09/29 00:19:22;;;;;;;5.80;3.60;;;;;;;9.29;75.33;98020.75;338215;29;1291;-84
2022/09/29 00:19:34;;;;;;;6.13;3.65;;;;;;;9.29;75.47;98020.75;339693;29;993;-84
2022/09/29 00:19:46;;;;;;;6.07;3.60;;;;;;;9.28;75.59;98019.91;340159;29;747;-84
2022/09/29 00:19:59;;;;;;;5.57;3.53;;;;;;;9.26;75.91;98021.75;339043;29;1668;-84
2022/09/29 00:20:11;;;;;;;6.07;3.50;;;;;;;9.24;75.88;98027.94;338541;29;1552;-84
2022/09/29 00:20:23;;;;;;;5.70;3.50;;;;;;;9.22;75.86;98032.38;338686;29;1586;-84
2022/09/29 00:20:35;;;;;;;4.43;3.40;;;;;;;9.24;75.61;98027.94;338162;29;1676;-85
2022/09/29 00:20:56;;;;;;;6.43;3.60;;;;;;;9.21;75.73;98028.94;338513;29;1708;-84
2022/09/29 00:21:18;;;;;;;7.95;3.83;;;;;;;9.22;75.64;98022.00;339736;29;1186;-84
2022/09/29 00:21:30;;;;;;;7.30;3.72;;;;;;;9.23;75.52;98026.25;339703;29;1023;-84
2022/09/29 00:21:42;;;;;;;5.65;3.47;;;;;;;9.25;75.72;98027.00;338070;29;1013;-84
2022/09/29 00:21:54;;;;;;;5.32;3.50;;;;;;;9.23;75.51;98032.28;339473;29;1225;-84
2022/09/29 00:22:06;;;;;;;6.32;3.65;;;;;;;9.23;75.47;98023.66;339289;29;1036;-84
2022/09/29 00:22:18;;;;;;;6.63;3.97;;;;;;;9.25;75.45;98029.59;340461;28;1205;-84
2022/09/29 00:22:31;;;;;;;5.00;3.65;;;;;;;9.26;75.25;98026.13;340800;29;1121;-84
2022/09/29 00:22:43;;;;;;;4.53;3.53;;;;;;;9.26;75.67;98026.13;340864;29;790;-84
2022/09/29 00:22:55;;;;;;;4.88;3.45;;;;;;;9.26;75.61;98018.34;339899;29;1719;-84
2022/09/29 00:23:07;;;;;;;5.20;3.38;;;;;;;9.27;75.17;98027.78;341186;29;757;-84
2022/09/29 00:23:19;;;;;;;5.05;3.33;;;;;;;9.27;75.59;98020.81;341372;28;1237;-84
2022/09/29 00:23:33;;;;;;;6.50;3.65;;;;;;;9.28;75.33;98024.28;340690;29;1163;-84
2022/09/29 00:23:45;;;;;;;6.85;3.80;;;;;;;9.27;75.46;98022.59;340758;29;1212;-84
2022/09/29 00:23:59;;;;;;;5.65;3.60;;;;;;;9.26;75.45;98024.34;340253;29;1169;-85
2022/09/29 00:24:11;;;;;;;4.97;3.40;;;;;;;9.26;75.52;98031.28;339616;29;1072;-84
2022/09/29 00:24:24;;;;;;;5.18;3.20;;;;;;;9.26;75.82;98029.53;340364;29;1349;-84
2022/09/29 00:24:36;;;;;;;4.85;3.20;;;;;;;9.28;75.70;98024.28;340766;29;1210;-85
2022/09/29 00:24:48;;;;;;;4.82;3.22;;;;;;;9.28;75.58;98029.47;339163;29;1551;-84
2022/09/29 00:25:00;;;;;;;5.40;3.30;;;;;;;9.30;75.41;98022.44;337614;29;1449;-84
2022/09/29 00:25:12;;;;;;;5.88;3.35;;;;;;;9.30;74.79;98025.84;337024;29;1043;-84
2022/09/29 00:25:24;;;;;;;5.85;3.30;;;;;;;9.31;75.03;98019.72;339060;29;1289;-84
2022/09/29 00:25:37;;;;;;;6.15;3.35;;;;;;;9.32;75.16;98028.38;339388;28;1490;-84
2022/09/29 00:26:01;;;;;;;6.53;3.33;;;;;;;9.31;74.89;98024.91;338904;29;1729;-84
2022/09/29 00:26:19;;;;;;;5.00;3.13;;;;;;;9.31;74.89;98026.69;339749;29;1040;-84
2022/09/29 00:26:31;;;;;;;6.85;3.20;;;;;;;9.31;74.79;98021.50;338421;29;1888;-84
2022/09/29 00:26:45;;;;;;;7.97;3.40;;;;;;;9.30;74.85;98018.06;339224;29;1480;-84
2022/09/29 00:26:57;;;;;;;6.60;3.40;;;;;;;9.31;74.84;98024.09;337901;29;1028;-84
2022/09/29 00:27:09;;;;;;;5.88;3.40;;;;;;;9.31;74.93;98024.09;338293;29;1145;-84
2022/09/29 00:27:21;;;;;;;5.65;3.40;;;;;;;9.32;75.37;98026.63;340971;29;1166;-84
2022/09/29 00:27:33;;;;;;;5.38;3.35;;;;;;;9.32;75.18;98021.44;340955;29;1982;-84
2022/09/29 00:27:45;;;;;;;4.78;3.30;;;;;;;9.32;75.09;98024.03;339670;29;897;-84
2022/09/29 00:27:57;;;;;;;4.85;3.30;;;;;;;9.34;74.99;98021.34;339983;29;1209;-84
2022/09/29 00:28:09;;;;;;;5.30;3.35;;;;;;;9.35;74.88;98023.00;340753;29;1118;-84
2022/09/29 00:28:21;;;;;;;5.45;3.38;;;;;;;9.34;74.92;98027.38;339678;29;1267;-84
2022/09/29 00:28:35;;;;;;;4.50;3.25;;;;;;;9.35;74.80;98017.81;339232;29;1643;-84
2022/09/29 00:28:54;;;;;;;4.35;3.42;;;;;;;9.34;74.83;98029.13;338627;29;1481;-84
2022/09/29 00:29:06;;;;;;;6.55;3.50;;;;;;;9.34;74.76;98018.75;339180;29;1181;-84
2022/09/29 00:29:18;;;;;;;6.80;3.47;;;;;;;9.31;75.22;98021.50;340410;28;1174;-84
2022/09/29 00:29:30;;;;;;;5.95;3.58;;;;;;;9.30;74.88;98017.25;342004;28;1785;-84
2022/09/29 00:29:42;;;;;;;5.57;3.75;;;;;;;9.31;75.05;98024.09;339694;29;1368;-85
2022/09/29 00:29:54;;;;;;;6.03;3.80;;;;;;;9.31;75.37;98021.50;339756;28;1699;-85
2022/09/29 00:30:07;;;;;;;6.28;3.92;;;;;;;9.31;75.25;98019.72;338571;29;1563;-84
2022/09/29 00:30:19;;;;;;;6.50;3.63;;;;;;;9.31;75.49;98024.09;338377;29;1392;-84
2022/09/29 00:30:30;;;;;;;6.32;3.47;;;;;;;9.33;75.11;98022.25;338244;29;1020;-84
2022/09/29 00:30:43;;;;;;;6.22;3.47;;;;;;;9.33;75.39;98027.44;338260;29;1092;-84
2022/09/29 00:30:58;;;;;;;6.43;3.97;;;;;;;9.33;75.14;98017.06;337243;29;1549;-84
2022/09/29 00:31:11;;;;;;;5.93;4.00;;;;;;;9.34;75.25;98017.00;337054;29;1486;-84
2022/09/29 00:31:28;;;;;;;4.70;3.55;;;;;;;9.34;75.49;98026.53;339358;29;1192;-84
2022/09/29 00:31:40;;;;;;;5.30;3.38;;;;;;;9.34;74.95;98019.59;337328;29;1565;-84
2022/09/29 00:31:52;;;;;;;5.68;3.45;;;;;;;9.35;75.23;98025.59;338300;29;1669;-84
2022/09/29 00:32:05;;;;;;;6.03;3.47;;;;;;;9.35;75.48;98015.22;339590;29;1160;-84
2022/09/29 00:32:17;;;;;;;6.70;3.60;;;;;;;9.35;75.06;98021.25;339357;29;1185;-84
2022/09/29 00:32:29;;;;;;;7.95;3.63;;;;;;;9.34;75.10;98016.16;339759;29;1028;-84
2022/09/29 00:32:41;;;;;;;6.80;3.45;;;;;;;9.35;75.26;98020.41;339738;28;1587;-84
2022/09/29 00:32:53;;;;;;;7.40;3.58;;;;;;;9.36;75.39;98022.09;340721;29;1664;-85
2022/09/29 00:33:05;;;;;;;5.87;3.57;;;;;;;9.35;74.87;98025.59;340845;29;1059;-85
2022/09/29 00:33:17;;;;;;;5.50;3.43;;;;;;;9.36;75.02;98016.91;339368;28;1457;-85
2022/09/29 00:33:31;;;;;;;5.35;3.70;;;;;;;9.37;75.04;98013.38;340200;29;782;-84
2022/09/29 00:33:43;;;;;;;6.22;3.80;;;;;;;9.36;74.89;98016.91;338647;29;1511;-84
2022/09/29 00:33:55;;;;;;;6.65;3.63;;;;;;;9.36;74.89;98017.75;339529;29;1039;-84
2022/09/29 00:34:07;;;;;;;7.32;3.63;;;;;;;9.36;74.77;98016.91;339813;29;751;-84
2022/09/29 00:34:19;;;;;;;7.30;3.50;;;;;;;9.35;74.72;98020.41;340034;29;1264;-85
2022/09/29 00:34:32;;;;;;;6.80;3.53;;;;;;;9.35;75.22;98020.41;337270;29;1362;-84
2022/09/29 00:34:44;;;;;;;6.10;3.50;;;;;;;9.36;74.82;98014.31;336875;29;1618;-84
2022/09/29 00:34:56;;;;;;;5.75;3.72;;;;;;;9.35;74.84;98017.81;338285;29;1023;-84
2022/09/29 00:35:09;;;;;;;5.30;3.40;;;;;;;9.35;74.82;98015.22;338848;29;1081;-84
2022/09/29 00:35:21;;;;;;;5.28;3.40;;;;;;;9.31;74.74;98024.09;338853;29;1400;-84
2022/09/29 00:35:33;;;;;;;5.00;3.40;;;;;;;9.30;75.17;98018.06;337346;29;1670;-84
2022/09/29 00:35:59;;;;;;;5.85;3.30;;;;;;;9.29;74.97;98021.56;337038;29;988;-84
2022/09/29 00:36:14;;;;;;;6.30;3.40;;;;;;;9.30;74.98;98017.25;337885;29;1980;-84
2022/09/29 00:36:29;;;;;;;6.10;3.28;;;;;;;9.30;75.33;98019.84;337184;29;1054;-83
2022/09/29 00:36:41;;;;;;;8.27;3.15;;;;;;;9.30;75.31;98014.66;338453;29;1457;-84
2022/09/29 00:36:53;;;;;;;8.40;3.28;;;;;;;9.30;75.13;98017.25;339216;29;1712;-84
2022/09/29 00:37:05;;;;;;;6.45;3.15;;;;;;;9.30;75.30;98019.84;339608;29;1016;-84
2022/09/29 00:37:17;;;;;;;6.80;3.20;;;;;;;9.30;75.21;98017.25;339390;29;1257;-84
2022/09/29 00:37:30;;;;;;;5.97;3.22;;;;;;;9.32;75.35;98020.59;339409;29;1082;-84
2022/09/29 00:37:42;;;;;;;5.57;3.17;;;;;;;9.33;74.97;98017.06;337046;29;1644;-84
2022/09/29 00:37:54;;;;;;;5.60;3.10;;;;;;;9.34;74.80;98018.75;338428;29;1788;-84
2022/09/29 00:38:06;;;;;;;5.70;3.30;;;;;;;9.35;75.05;98017.81;339907;29;915;-84
2022/09/29 00:38:18;;;;;;;5.53;3.20;;;;;;;9.32;74.98;98015.41;339667;29;1134;-84
2022/09/29 00:38:30;;;;;;;5.13;3.10;;;;;;;9.34;74.86;98016.16;339903;29;1043;-84
2022/09/29 00:38:45;;;;;;;4.97;2.95;;;;;;;9.35;75.04;98015.22;338640;29;1430;-84
2022/09/29 00:38:58;;;;;;;4.80;2.88;;;;;;;9.36;74.98;98012.56;339773;29;1785;-85
2022/09/29 00:39:10;;;;;;;7.38;2.90;;;;;;;9.33;74.55;98015.31;338597;29;1494;-84
2022/09/29 00:39:22;;;;;;;7.18;3.00;;;;;;;9.35;74.62;98023.00;340413;29;1262;-84
2022/09/29 00:39:34;;;;;;;7.68;3.08;;;;;;;9.35;74.81;98015.22;341200;28;1500;-85
2022/09/29 00:39:46;;;;;;;7.38;3.20;;;;;;;9.35;74.96;98017.81;340983;29;1502;-84
2022/09/29 00:40:00;;;;;;;6.32;3.05;;;;;;;9.33;74.82;98012.72;339776;29;1120;-84
2022/09/29 00:40:12;;;;;;;6.43;3.20;;;;;;;9.33;75.01;98017.91;339368;29;1127;-83
2022/09/29 00:40:24;;;;;;;6.57;3.35;;;;;;;9.32;74.83;98020.59;341003;29;1142;-84
2022/09/29 00:40:36;;;;;;;8.25;3.22;;;;;;;9.30;74.84;98017.25;340103;28;1544;-85
2022/09/29 00:40:48;;;;;;;7.60;2.92;;;;;;;9.31;74.80;98014.56;341060;29;1677;-84
2022/09/29 00:41:01;;;;;;;5.55;3.08;;;;;;;9.31;75.04;98018.91;340969;29;1698;-84
2022/09/29 00:41:16;;;;;;;4.70;3.05;;;;;;;9.29;75.09;98018.16;340847;28;1238;-85
2022/09/29 00:41:34;;;;;;;5.80;3.03;;;;;;;9.26;75.23;98016.56;339469;29;1925;-84
2022/09/29 00:41:46;;;;;;;5.80;3.17;;;;;;;9.27;75.18;98017.41;339550;29;1482;-84
2022/09/29 00:41:58;;;;;;;5.72;3.20;;;;;;;9.28;75.09;98019.91;339393;29;1963;-85
2022/09/29 00:42:11;;;;;;;5.82;3.53;;;;;;;9.28;75.15;98024.28;340809;29;1548;-85
2022/09/29 00:42:24;;;;;;;6.10;3.72;;;;;;;9.27;74.77;98017.41;338331;29;1451;-85
2022/09/29 00:42:36;;;;;;;5.85;3.58;;;;;;;9.25;74.96;98008.88;338715;29;1784;-84
2022/09/29 00:42:48;;;;;;;5.43;2.95;;;;;;;9.25;74.69;98016.66;340820;29;1767;-84
2022/09/29 00:43:00;;;;;;;4.40;2.85;;;;;;;9.26;74.81;98020.94;340167;29;716;-84
2022/09/29 00:43:20;;;;;;;4.57;3.05;;;;;;;9.25;74.92;98014.06;339511;29;1174;-84
2022/09/29 00:43:54;;;;;;;7.32;3.13;;;;;;;9.26;74.81;98015.75;339538;29;1421;-83
2022/09/29 00:44:44;;;;;;;6.75;3.10;;;;;;;9.24;74.51;98017.56;338458;29;977;-84
2022/09/29 00:45:02;;;;;;;5.75;3.13;;;;;;;9.26;74.12;98010.56;337356;29;1618;-83
2022/09/29 00:45:22;;;;;;;5.25;3.10;;;;;;;9.28;74.05;98013.91;338276;29;1733;-84
2022/09/29 00:45:35;;;;;;;3.53;2.85;;;;;;;9.30;74.54;98017.25;338483;29;1576;-84
2022/09/29 00:45:50;;;;;;;8.07;3.38;;;;;;;9.28;74.31;98009.53;338616;29;1358;-84
2022/09/29 00:46:02;;;;;;;9.85;3.60;;;;;;;9.29;74.31;98016.38;339014;29;1902;-84
2022/09/29 00:46:17;;;;;;;6.32;3.22;;;;;;;9.28;74.24;98017.31;339347;29;1216;-84
2022/09/29 00:46:36;;;;;;;5.15;3.10;;;;;;;9.28;74.16;98014.72;339305;29;1056;-84
2022/09/29 00:47:01;;;;;;;5.97;3.03;;;;;;;9.29;74.16;98020.75;339762;29;1617;-84
2022/09/29 00:47:16;;;;;;;6.05;3.30;;;;;;;9.30;74.22;98017.25;339459;29;1859;-84
2022/09/29 00:47:32;;;;;;;5.90;3.08;;;;;;;9.30;74.20;98012.06;339511;29;996;-85
2022/09/29 00:47:48;;;;;;;6.80;3.05;;;;;;;9.30;74.01;98012.88;338400;29;1904;-84
2022/09/29 00:48:13;;;;;;;6.88;3.05;;;;;;;9.30;74.44;98012.06;338642;29;1160;-84
2022/09/29 00:48:31;;;;;;;8.23;3.35;;;;;;;9.31;74.07;98013.72;339644;28;1031;-84
2022/09/29 00:48:45;;;;;;;8.43;3.30;;;;;;;9.32;74.07;98013.66;339187;29;1591;-84
2022/09/29 00:49:04;;;;;;;8.15;2.95;;;;;;;9.32;74.04;98015.41;339688;29;1073;-84
2022/09/29 00:49:22;;;;;;;8.43;2.70;;;;;;;9.32;73.85;98015.41;338704;29;1624;-84
2022/09/29 00:50:00;;;;;;;5.05;2.70;;;;;;;9.28;74.19;98006.94;339301;29;1555;-84
2022/09/29 00:50:26;;;;;;;5.00;3.20;;;;;;;9.28;74.25;98013.91;337719;29;1154;-84
2022/09/29 00:50:46;;;;;;;5.60;3.30;;;;;;;9.26;74.29;98005.38;340568;29;1484;-84
2022/09/29 00:50:58;;;;;;;5.22;3.20;;;;;;;9.26;74.66;98013.16;340107;28;1189;-84
2022/09/29 00:51:11;;;;;;;6.43;3.20;;;;;;;9.28;74.22;98011.31;340913;29;1147;-84
2022/09/29 00:51:25;;;;;;;7.72;3.28;;;;;;;9.27;74.33;98009.63;340626;29;1055;-84
2022/09/29 00:51:39;;;;;;;5.78;3.03;;;;;;;9.27;74.23;98013.03;340973;29;1239;-84
2022/09/29 00:51:58;;;;;;;4.85;3.05;;;;;;;9.28;74.48;98009.53;340636;29;1056;-84
2022/09/29 00:52:15;;;;;;;6.00;3.20;;;;;;;9.27;74.29;98012.22;341034;29;971;-84
2022/09/29 00:52:39;;;;;;;6.10;3.40;;;;;;;9.26;74.53;98015.75;339643;29;1065;-85
2022/09/29 00:53:00;;;;;;;5.00;3.00;;;;;;;9.25;74.35;98004.50;339206;29;1504;-85
2022/09/29 00:53:14;;;;;;;6.95;3.05;;;;;;;9.26;74.47;98010.56;339501;29;1181;-85
2022/09/29 00:53:33;;;;;;;5.97;3.03;;;;;;;9.26;74.71;98010.56;338218;29;1166;-84
2022/09/29 00:53:46;;;;;;;4.80;3.13;;;;;;;9.25;74.66;98008.88;337821;29;1776;-84
2022/09/29 00:53:59;;;;;;;5.07;3.10;;;;;;;9.23;74.71;98010.69;338052;29;1042;-85
2022/09/29 00:54:12;;;;;;;5.63;3.20;;;;;;;9.25;74.78;98003.69;338023;29;1505;-84
2022/09/29 00:54:29;;;;;;;10.55;3.58;;;;;;;9.24;74.50;98002.03;339555;29;1173;-84
2022/09/29 00:54:48;;;;;;;11.43;3.30;;;;;;;9.23;74.64;98013.28;340320;29;1638;-84
2022/09/29 00:55:06;;;;;;;7.18;2.97;;;;;;;9.22;74.71;98003.84;341030;29;1076;-84
2022/09/29 00:55:36;;;;;;;7.68;3.28;;;;;;;9.19;75.10;98005.69;340353;29;1228;-85
2022/09/29 00:56:07;;;;;;;8.15;3.17;;;;;;;9.15;75.31;98011.94;340379;29;1971;-84
2022/09/29 00:56:20;;;;;;;11.50;3.25;;;;;;;9.13;75.25;98006.00;338682;29;1308;-84
2022/09/29 00:56:34;;;;;;;10.45;3.10;;;;;;;9.12;75.38;98004.34;339510;29;1099;-84
2022/09/29 00:56:47;;;;;;;9.18;2.92;;;;;;;9.12;75.00;98009.53;339639;29;1043;-84
2022/09/29 00:57:01;;;;;;;5.78;2.90;;;;;;;9.13;75.33;98010.34;339274;29;1016;-84
2022/09/29 00:57:16;;;;;;;6.32;3.00;;;;;;;9.13;74.95;98008.59;339880;29;812;-84
2022/09/29 00:57:36;;;;;;;5.70;3.30;;;;;;;9.13;75.32;98005.16;337762;29;1610;-84
2022/09/29 00:57:56;;;;;;;5.00;3.35;;;;;;;9.11;75.32;98010.44;339131;29;1160;-84
2022/09/29 00:58:14;;;;;;;4.30;3.10;;;;;;;9.13;75.24;98003.41;338452;29;1374;-84
2022/09/29 00:58:34;;;;;;;4.82;3.30;;;;;;;9.13;75.25;98006.00;340074;29;1054;-84
2022/09/29 00:58:55;;;;;;;6.32;3.15;;;;;;;9.13;75.17;98007.75;338344;29;934;-84
2022/09/29 00:59:14;;;;;;;5.82;2.97;;;;;;;9.14;75.21;98007.69;338513;29;1256;-84
2022/09/29 00:59:39;;;;;;;6.85;3.10;;;;;;;9.12;75.37;98014.72;338929;29;1929;-84
2022/09/29 01:00:03;;;;;;;5.88;3.15;;;;;;;9.08;75.29;98005.41;338955;29;1720;-85
2022/09/29 01:00:16;;;;;;;8.00;3.40;;;;;;;9.07;75.25;98008.91;338357;29;1299;-84
2022/09/29 01:00:28;;;;;;;9.23;3.25;;;;;;;9.06;75.58;98004.66;341171;29;884;-84
2022/09/29 01:00:42;;;;;;;9.55;3.15;;;;;;;9.04;75.70;98006.50;339336;29;1618;-84
2022/09/29 01:00:54;;;;;;;8.43;3.20;;;;;;;9.06;75.60;98009.03;341833;29;1671;-85
2022/09/29 01:01:07;;;;;;;9.13;3.33;;;;;;;9.06;75.67;98004.66;341255;29;928;-84
2022/09/29 01:01:25;;;;;;;9.00;3.30;;;;;;;9.03;75.89;98010.00;341838;28;1256;-84
2022/09/29 01:01:37;;;;;;;9.68;3.28;;;;;;;9.00;75.61;98002.41;341021;28;1699;-85
2022/09/29 01:01:51;;;;;;;8.15;3.22;;;;;;;9.02;75.71;98003.16;340695;29;1922;-84
2022/09/29 01:02:04;;;;;;;6.95;3.25;;;;;;;9.02;75.64;98004.91;341429;28;1110;-84
2022/09/29 01:02:18;;;;;;;9.88;3.65;;;;;;;9.00;75.73;98007.59;339923;28;1929;-84
2022/09/29 01:02:34;;;;;;;9.55;3.70;;;;;;;9.00;76.04;98005.81;340762;29;1751;-84
2022/09/29 01:02:50;;;;;;;6.65;3.38;;;;;;;9.02;75.61;98012.69;339795;28;1424;-84
2022/09/29 01:03:14;;;;;;;7.03;3.25;;;;;;;9.03;75.65;98010.00;338712;29;1116;-84
2022/09/29 01:03:35;;;;;;;6.30;3.10;;;;;;;9.04;75.36;98009.09;340211;29;1071;-85
2022/09/29 01:03:48;;;;;;;8.68;3.20;;;;;;;9.05;75.48;98005.56;338652;29;1766;-84
2022/09/29 01:04:09;;;;;;;8.40;3.20;;;;;;;9.03;75.54;98010.00;338509;29;1052;-84
2022/09/29 01:04:22;;;;;;;7.30;3.38;;;;;;;9.03;75.88;98004.81;340326;29;1165;-84
2022/09/29 01:04:34;;;;;;;9.07;3.50;;;;;;;9.02;75.38;98003.16;340306;29;1685;-84
2022/09/29 01:04:51;;;;;;;8.23;3.30;;;;;;;9.06;75.65;98004.66;338131;29;1486;-84
2022/09/29 01:05:09;;;;;;;6.80;3.13;;;;;;;9.07;75.17;98008.91;340006;29;1126;-84
2022/09/29 01:05:29;;;;;;;5.05;3.08;;;;;;;9.07;75.62;98011.50;338694;29;1736;-84
2022/09/29 01:05:49;;;;;;;4.80;3.30;;;;;;;9.04;75.15;98005.66;340367;28;1508;-84
2022/09/29 01:06:09;;;;;;;7.35;3.63;;;;;;;9.05;75.34;98007.31;341359;29;1016;-84
2022/09/29 01:06:30;;;;;;;9.95;3.65;;;;;;;9.00;75.27;98010.16;340648;28;1748;-85
2022/09/29 01:06:50;;;;;;;8.82;3.30;;;;;;;9.02;75.20;98010.09;337947;29;1537;-85
2022/09/29 01:07:02;;;;;;;5.20;3.50;;;;;;;9.04;75.48;98005.66;339917;29;1144;-84
2022/09/29 01:07:14;;;;;;;5.53;3.50;;;;;;;9.04;75.58;98009.09;339858;29;1047;-84
2022/09/29 01:07:27;;;;;;;5.40;3.45;;;;;;;9.03;75.48;98012.59;339951;29;1071;-85
2022/09/29 01:07:40;;;;;;;5.10;3.45;;;;;;;9.03;75.56;98010.00;339068;29;1471;-84
2022/09/29 01:07:52;;;;;;;5.85;3.45;;;;;;;9.05;75.73;98009.91;339277;29;1669;-85
2022/09/29 01:08:32;;;;;;;5.90;3.40;;;;;;;9.06;75.84;98009.84;339731;29;1215;-84
2022/09/29 01:08:58;;;;;;;4.57;3.33;;;;;;;9.03;75.66;98012.59;337060;29;1548;-85
2022/09/29 01:09:14;;;;;;;7.15;3.20;;;;;;;9.04;75.71;98011.69;338227;29;1117;-84
2022/09/29 01:09:31;;;;;;;8.00;3.30;;;;;;;9.04;75.58;98009.09;338507;29;967;-84
2022/09/29 01:09:43;;;;;;;5.30;3.40;;;;;;;9.03;75.19;98010.00;337700;29;1502;-85
2022/09/29 01:09:56;;;;;;;4.78;3.15;;;;;;;9.04;75.08;98011.69;337780;29;1713;-84
2022/09/29 01:10:10;;;;;;;4.60;3.20;;;;;;;9.02;75.33;98007.50;337705;29;1119;-85
2022/09/29 01:10:22;;;;;;;5.32;3.25;;;;;;;8.99;75.30;98011.06;337296;29;1911;-84
2022/09/29 01:10:37;;;;;;;7.07;3.20;;;;;;;9.00;75.69;98005.81;337866;29;1528;-85
2022/09/29 01:10:51;;;;;;;7.55;3.30;;;;;;;9.02;75.61;98008.34;339294;29;1561;-84